createdAt,value
2022-11-23T00:01:32.992Z,6.85
2022-11-23T00:04:03.442Z,8.90
2022-11-23T00:06:30.812Z,6.50
2022-11-23T00:08:58.270Z,7.10
2022-11-23T00:11:28.012Z,6.15
2022-11-23T00:13:55.889Z,5.60
2022-11-23T00:16:26.014Z,5.55
2022-11-23T00:18:54.527Z,6.13
2022-11-23T00:21:22.525Z,4.72
2022-11-23T00:23:50.469Z,3.72
2022-11-23T00:26:18.296Z,4.05
2022-11-23T00:28:45.809Z,4.40
2022-11-23T00:31:15.168Z,3.92
2022-11-23T00:33:43.030Z,3.35
2022-11-23T00:36:14.806Z,3.00
2022-11-23T00:38:42.874Z,3.13
2022-11-23T00:41:16.411Z,3.42
2022-11-23T00:43:44.114Z,4.07
2022-11-23T00:46:17.181Z,2.35
2022-11-23T00:48:45.660Z,1.77
2022-11-23T00:51:15.459Z,1.50
2022-11-23T00:53:42.729Z,1.30
2022-11-23T00:56:10.395Z,1.20
2022-11-23T00:58:40.376Z,0.68
2022-11-23T01:01:13.297Z,1.10
2022-11-23T01:03:43.391Z,1.30
2022-11-23T01:06:31.123Z,1.20
2022-11-23T01:09:04.700Z,1.30
2022-11-23T01:11:33.050Z,1.05
2022-11-23T01:14:00.608Z,1.05
2022-11-23T01:16:31.285Z,1.00
2022-11-23T01:19:07.332Z,0.90
2022-11-23T01:21:35.439Z,0.90
2022-11-23T01:24:14.534Z,1.00
2022-11-23T01:26:44.011Z,0.77
2022-11-23T01:29:11.862Z,1.02
2022-11-23T01:31:43.180Z,1.20
2022-11-23T01:34:14.540Z,1.10
2022-11-23T01:36:41.808Z,1.40
2022-11-23T01:39:08.833Z,1.48
2022-11-23T01:41:39.338Z,1.35
2022-11-23T01:44:27.441Z,1.20
2022-11-23T01:46:55.667Z,1.30
2022-11-23T01:49:24.119Z,0.90
2022-11-23T01:51:54.660Z,1.20
2022-11-23T01:54:30.676Z,0.68
2022-11-23T01:57:06.444Z,1.10
2022-11-23T01:59:35.438Z,0.90
2022-11-23T02:02:02.811Z,0.80
2022-11-23T02:04:41.002Z,0.90
2022-11-23T02:07:08.484Z,0.80
2022-11-23T02:09:35.966Z,1.00
2022-11-23T02:12:02.962Z,1.33
2022-11-23T02:14:30.345Z,1.05
2022-11-23T02:17:00.364Z,1.00
2022-11-23T02:19:48.593Z,0.95
2022-11-23T02:22:28.988Z,1.00
2022-11-23T02:24:56.314Z,1.40
2022-11-23T02:27:23.408Z,1.42
2022-11-23T02:29:52.427Z,1.40
2022-11-23T02:32:24.803Z,1.20
2022-11-23T02:37:19.051Z,1.08
2022-11-23T02:39:51.202Z,1.15
2022-11-23T02:42:18.729Z,0.98
2022-11-23T02:45:24.350Z,0.98
2022-11-23T02:47:51.158Z,1.17
2022-11-23T02:50:17.899Z,1.70
2022-11-23T02:52:44.781Z,1.20
2022-11-23T02:55:11.676Z,2.00
2022-11-23T02:57:38.605Z,2.75
2022-11-23T03:00:06.341Z,1.95
2022-11-23T03:02:33.240Z,2.03
2022-11-23T03:05:00.039Z,2.28
2022-11-23T03:07:26.954Z,3.67
2022-11-23T03:09:54.219Z,2.28
2022-11-23T03:12:21.030Z,1.85
2022-11-23T03:14:47.858Z,2.95
2022-11-23T03:17:14.750Z,2.35
2022-11-23T03:19:41.615Z,1.30
2022-11-23T03:22:08.585Z,1.50
2022-11-23T03:24:35.473Z,0.90
2022-11-23T03:27:02.454Z,0.85
2022-11-23T03:29:29.636Z,0.98
2022-11-23T03:31:56.690Z,1.10
2022-11-23T03:34:23.893Z,1.20
2022-11-23T03:36:50.814Z,1.33
2022-11-23T03:39:17.866Z,0.90
2022-11-23T03:41:44.753Z,1.13
2022-11-23T03:44:11.537Z,1.30
2022-11-23T03:46:38.314Z,1.40
2022-11-23T03:49:05.329Z,1.30
2022-11-23T03:51:32.168Z,1.08
2022-11-23T03:53:58.949Z,1.55
2022-11-23T03:56:25.774Z,1.38
2022-11-23T03:58:52.604Z,1.38
2022-11-23T04:01:19.424Z,1.23
2022-11-23T04:03:46.294Z,1.23
2022-11-23T04:06:13.086Z,1.60
2022-11-23T04:08:40.256Z,1.58
2022-11-23T04:11:07.210Z,1.40
2022-11-23T04:13:34.005Z,1.48
2022-11-23T04:16:04.180Z,1.63
2022-11-23T04:18:34.117Z,1.52
2022-11-23T04:21:00.984Z,1.10
2022-11-23T04:23:27.970Z,1.20
2022-11-23T04:25:54.984Z,1.25
2022-11-23T04:28:21.805Z,1.10
2022-11-23T04:30:48.609Z,0.80
2022-11-23T04:33:15.539Z,1.00
2022-11-23T04:35:42.387Z,0.93
2022-11-23T04:38:09.256Z,0.82
2022-11-23T04:40:36.149Z,0.90
2022-11-23T04:43:03.801Z,1.40
2022-11-23T04:45:30.730Z,1.30
2022-11-23T04:47:58.193Z,1.50
2022-11-23T04:50:25.072Z,0.90
2022-11-23T04:52:51.975Z,1.20
2022-11-23T04:55:18.812Z,1.10
2022-11-23T04:57:45.768Z,1.60
2022-11-23T05:00:17.512Z,1.10
2022-11-23T05:02:44.776Z,1.50
2022-11-23T05:05:12.149Z,1.90
2022-11-23T05:07:40.356Z,1.70
2022-11-23T05:10:07.818Z,1.63
2022-11-23T05:12:34.734Z,1.90
2022-11-23T05:15:01.680Z,1.65
2022-11-23T05:17:28.826Z,1.90
2022-11-23T05:19:56.703Z,2.10
2022-11-23T05:22:23.938Z,2.10
2022-11-23T05:24:50.995Z,1.80
2022-11-23T05:27:17.997Z,2.58
2022-11-23T05:29:44.921Z,2.90
2022-11-23T05:32:14.737Z,2.00
2022-11-23T05:34:41.762Z,1.73
2022-11-23T05:37:08.961Z,2.20
2022-11-23T05:39:35.925Z,2.20
2022-11-23T05:42:02.851Z,2.25
2022-11-23T05:44:30.128Z,2.42
2022-11-23T05:46:57.242Z,2.38
2022-11-23T05:49:24.759Z,3.20
2022-11-23T05:51:51.758Z,2.65
2022-11-23T05:54:19.294Z,3.97
2022-11-23T05:56:47.911Z,2.58
2022-11-23T05:59:14.833Z,4.65
2022-11-23T06:01:43.086Z,4.43
2022-11-23T06:04:10.376Z,2.90
2022-11-23T06:06:37.660Z,3.20
2022-11-23T06:09:04.714Z,3.00
2022-11-23T06:11:32.692Z,3.30
2022-11-23T06:14:01.400Z,3.42
2022-11-23T06:16:32.734Z,3.20
2022-11-23T06:19:01.943Z,2.45
2022-11-23T06:21:28.965Z,3.00
2022-11-23T06:23:56.997Z,2.30
2022-11-23T06:26:24.170Z,2.50
2022-11-23T06:28:51.474Z,2.10
2022-11-23T06:31:18.413Z,2.65
2022-11-23T06:33:45.332Z,2.85
2022-11-23T06:36:12.903Z,3.20
2022-11-23T06:38:39.961Z,3.03
2022-11-23T06:41:07.085Z,3.95
2022-11-23T06:43:34.071Z,3.63
2022-11-23T06:46:05.420Z,6.15
2022-11-23T06:51:15.321Z,9.93
2022-11-23T06:53:42.527Z,9.10
2022-11-23T06:56:13.156Z,5.80
2022-11-23T06:58:40.542Z,4.65
2022-11-23T07:01:11.477Z,4.18
2022-11-23T07:03:38.462Z,4.72
2022-11-23T07:06:09.619Z,4.68
2022-11-23T07:08:39.956Z,4.30
2022-11-23T07:11:06.906Z,4.63
2022-11-23T07:13:33.696Z,4.32
2022-11-23T07:16:00.420Z,3.85
2022-11-23T07:18:29.206Z,4.35
2022-11-23T07:20:59.402Z,4.80
2022-11-23T07:23:26.638Z,5.72
2022-11-23T07:25:53.705Z,5.55
2022-11-23T07:28:20.489Z,5.45
2022-11-23T07:30:50.810Z,5.53
2022-11-23T07:33:17.632Z,4.88
2022-11-23T07:35:48.599Z,6.68
2022-11-23T07:38:17.393Z,6.78
2022-11-23T07:40:44.293Z,9.48
2022-11-23T07:43:11.148Z,8.63
2022-11-23T07:45:38.613Z,5.97
2022-11-23T07:48:08.613Z,6.28
2022-11-23T07:50:36.739Z,6.50
2022-11-23T07:53:04.767Z,5.40
2022-11-23T07:55:32.759Z,5.55
2022-11-23T07:57:59.903Z,5.32
2022-11-23T08:00:28.154Z,5.55
2022-11-23T08:03:25.467Z,6.13
2022-11-23T08:05:42.365Z,6.20
2022-11-23T08:08:09.237Z,6.07
2022-11-23T08:10:40.268Z,5.88
2022-11-23T08:13:10.539Z,6.32
2022-11-23T08:15:38.996Z,6.13
2022-11-23T08:18:06.155Z,6.25
2022-11-23T08:20:33.624Z,6.60
2022-11-23T08:23:00.592Z,7.57
2022-11-23T08:25:28.865Z,7.20
2022-11-23T08:28:19.662Z,7.30
2022-11-23T08:30:47.221Z,8.18
2022-11-23T08:33:16.501Z,5.88
2022-11-23T08:35:43.604Z,4.88
2022-11-23T08:38:11.572Z,4.97
2022-11-23T08:40:39.737Z,5.40
2022-11-23T08:43:06.773Z,5.60
2022-11-23T08:45:33.560Z,5.20
2022-11-23T08:48:02.104Z,6.32
2022-11-23T08:50:30.716Z,6.97
2022-11-23T08:52:58.741Z,7.55
2022-11-23T08:55:27.194Z,6.60
2022-11-23T08:57:57.923Z,8.63
2022-11-23T09:00:26.557Z,7.18
2022-11-23T09:02:53.815Z,6.60
2022-11-23T09:05:20.854Z,6.65
2022-11-23T09:07:47.692Z,7.32
2022-11-23T09:10:18.351Z,6.32
2022-11-23T09:12:46.328Z,6.47
2022-11-23T09:15:13.285Z,7.00
2022-11-23T09:17:40.180Z,6.90
2022-11-23T09:20:08.412Z,6.82
2022-11-23T09:22:35.266Z,6.60
2022-11-23T09:25:02.841Z,6.22
2022-11-23T09:27:29.856Z,7.10
2022-11-23T09:29:56.720Z,8.73
2022-11-23T09:32:23.808Z,7.95
2022-11-23T09:34:50.887Z,9.25
2022-11-23T09:37:18.368Z,9.40
2022-11-23T09:39:45.260Z,9.82
2022-11-23T09:42:24.660Z,10.55
2022-11-23T09:45:15.216Z,10.60
2022-11-23T09:48:01.876Z,9.25
2022-11-23T09:50:43.656Z,8.48
2022-11-23T09:53:19.414Z,8.07
2022-11-23T09:55:53.814Z,8.25
2022-11-23T09:58:26.700Z,8.30
2022-11-23T10:01:03.196Z,7.55
2022-11-23T10:03:41.629Z,8.25
2022-11-23T10:06:19.598Z,9.20
2022-11-23T10:08:57.920Z,10.57
2022-11-23T10:11:46.439Z,10.10
2022-11-23T10:14:24.199Z,10.85
2022-11-23T10:16:56.764Z,9.80
2022-11-23T10:20:00.639Z,8.88
2022-11-23T10:22:33.683Z,8.18
2022-11-23T10:25:08.784Z,9.30
2022-11-23T10:27:38.194Z,8.20
2022-11-23T10:30:12.061Z,8.02
2022-11-23T10:33:03.112Z,7.88
2022-11-23T10:35:35.893Z,6.38
2022-11-23T10:38:18.831Z,5.72
2022-11-23T10:41:02.978Z,4.60
2022-11-23T10:44:01.968Z,4.07
2022-11-23T10:46:34.314Z,5.45
2022-11-23T10:49:22.192Z,5.38
2022-11-23T10:51:59.778Z,6.00
2022-11-23T10:54:32.011Z,5.93
2022-11-23T10:57:02.877Z,5.43
2022-11-23T10:59:39.534Z,6.70
2022-11-23T11:02:23.816Z,6.85
2022-11-23T11:05:11.509Z,6.38
2022-11-23T11:07:39.362Z,6.10
2022-11-23T11:10:29.385Z,6.80
2022-11-23T11:12:58.711Z,6.70
2022-11-23T11:15:25.738Z,6.97
2022-11-23T11:17:57.656Z,7.28
2022-11-23T11:20:33.650Z,7.32
2022-11-23T11:23:05.285Z,8.40
2022-11-23T11:25:38.173Z,8.48
2022-11-23T11:28:19.692Z,7.50
2022-11-23T11:31:13.309Z,8.52
2022-11-23T11:33:52.148Z,7.45
2022-11-23T11:36:19.915Z,8.38
2022-11-23T11:39:17.121Z,8.40
2022-11-23T11:44:22.055Z,8.43
2022-11-23T11:47:02.410Z,7.85
2022-11-23T11:49:35.352Z,6.97
2022-11-23T11:52:19.062Z,8.25
2022-11-23T11:55:08.592Z,7.18
2022-11-23T11:57:41.664Z,7.18
2022-11-23T12:00:15.570Z,7.72
2022-11-23T12:03:03.771Z,8.25
2022-11-23T12:05:42.231Z,7.78
2022-11-23T12:08:32.632Z,6.97
2022-11-23T12:11:02.245Z,7.28
2022-11-23T12:13:30.306Z,8.05
2022-11-23T12:16:24.114Z,6.20
2022-11-23T12:19:02.541Z,7.22
2022-11-23T12:21:41.418Z,6.88
2022-11-23T12:24:22.547Z,6.10
2022-11-23T12:27:12.077Z,6.63
2022-11-23T12:30:02.247Z,6.47
2022-11-23T12:33:04.941Z,6.53
2022-11-23T12:38:29.422Z,7.00
2022-11-23T12:41:16.918Z,6.07
2022-11-23T12:44:07.977Z,5.80
2022-11-23T12:46:56.929Z,5.85
2022-11-23T12:49:26.955Z,6.53
2022-11-23T12:52:10.463Z,6.32
2022-11-23T12:55:21.009Z,6.18
2022-11-23T12:58:01.783Z,5.97
2022-11-23T13:00:36.391Z,6.82
2022-11-23T13:03:24.419Z,6.63
2022-11-23T13:06:22.851Z,6.30
2022-11-23T13:09:01.419Z,6.15
2022-11-23T13:11:47.015Z,5.88
2022-11-23T13:14:56.521Z,6.18
2022-11-23T13:17:54.666Z,6.13
2022-11-23T13:20:49.235Z,5.93
2022-11-23T13:23:21.560Z,5.38
2022-11-23T13:26:15.686Z,5.60
2022-11-23T13:28:43.857Z,5.10
2022-11-23T13:31:16.817Z,5.47
2022-11-23T13:33:46.890Z,5.80
2022-11-23T13:39:51.520Z,5.07
2022-11-23T13:42:18.942Z,5.10
2022-11-23T13:44:45.858Z,5.07
2022-11-23T13:47:16.255Z,5.20
2022-11-23T13:49:48.264Z,6.53
2022-11-23T13:52:21.300Z,6.07
2022-11-23T13:55:05.357Z,6.20
2022-11-23T13:57:36.629Z,6.10
2022-11-23T14:00:40.947Z,5.85
2022-11-23T14:03:45.149Z,6.47
2022-11-23T14:06:16.232Z,5.82
2022-11-23T14:08:44.123Z,5.95
2022-11-23T14:11:19.690Z,5.82
2022-11-23T14:13:59.679Z,5.70
2022-11-23T14:16:54.209Z,8.32
2022-11-23T14:19:48.113Z,7.15
2022-11-23T14:22:45.784Z,6.28
2022-11-23T14:25:30.376Z,5.60
2022-11-23T14:28:22.050Z,6.18
2022-11-23T14:31:03.943Z,6.68
2022-11-23T14:34:03.688Z,6.20
2022-11-23T14:36:57.388Z,5.28
2022-11-23T14:39:57.305Z,6.03
2022-11-23T14:42:26.926Z,4.85
2022-11-23T14:44:56.045Z,4.72
2022-11-23T14:47:30.842Z,7.43
2022-11-23T14:50:01.104Z,11.25
2022-11-23T14:52:31.288Z,12.40
2022-11-23T14:55:01.433Z,13.40
2022-11-23T14:57:43.201Z,12.73
2022-11-23T15:00:36.120Z,12.82
2022-11-23T15:06:17.069Z,17.30
2022-11-23T15:08:55.568Z,15.90
2022-11-23T15:11:27.634Z,14.27
2022-11-23T15:13:58.065Z,14.75
2022-11-23T15:16:26.277Z,15.75
2022-11-23T15:18:53.614Z,16.60
2022-11-23T15:21:27.708Z,30.77
2022-11-23T15:23:57.878Z,19.00
2022-11-23T15:26:47.423Z,19.95
2022-11-23T15:29:36.300Z,21.73
2022-11-23T15:32:30.803Z,23.90
2022-11-23T15:35:06.693Z,26.17
2022-11-23T15:37:43.073Z,24.40
2022-11-23T15:40:14.448Z,29.40
2022-11-23T15:42:42.552Z,56.03
2022-11-23T15:45:36.254Z,26.63
2022-11-23T15:48:05.359Z,19.20
2022-11-23T15:50:34.204Z,16.42
2022-11-23T15:53:02.400Z,12.40
2022-11-23T15:55:30.438Z,10.98
2022-11-23T15:57:58.329Z,11.82
2022-11-23T16:00:26.716Z,12.15
2022-11-23T16:03:09.522Z,11.90
2022-11-23T16:05:36.496Z,12.82
2022-11-23T16:08:03.314Z,11.80
2022-11-23T16:10:33.168Z,12.25
2022-11-23T16:13:01.756Z,12.35
2022-11-23T16:15:38.113Z,11.30
2022-11-23T16:18:18.568Z,11.50
2022-11-23T16:21:05.054Z,11.43
2022-11-23T16:23:54.425Z,10.13
2022-11-23T16:26:29.860Z,10.90
2022-11-23T16:28:58.978Z,10.23
2022-11-23T16:31:40.415Z,11.52
2022-11-23T16:34:26.018Z,11.27
2022-11-23T16:39:42.867Z,11.63
2022-11-23T16:42:16.972Z,11.40
2022-11-23T16:44:48.718Z,10.70
2022-11-23T16:47:26.377Z,10.10
2022-11-23T16:49:54.193Z,10.60
2022-11-23T16:52:22.767Z,11.43
2022-11-23T16:54:54.393Z,11.30
2022-11-23T16:57:32.794Z,10.50
2022-11-23T17:00:05.296Z,11.43
2022-11-23T17:02:32.646Z,11.73
2022-11-23T17:05:00.373Z,11.25
2022-11-23T17:07:28.967Z,10.25
2022-11-23T17:12:41.187Z,9.70
2022-11-23T17:15:12.373Z,9.88
2022-11-23T17:17:39.253Z,9.32
2022-11-23T17:20:10.320Z,8.93
2022-11-23T17:22:37.479Z,9.80
2022-11-23T17:25:07.858Z,10.82
2022-11-23T17:27:41.967Z,8.77
2022-11-23T17:30:18.279Z,7.80
2022-11-23T17:32:52.322Z,8.73
2022-11-23T17:41:15.291Z,8.10
2022-11-23T17:49:18.372Z,10.95
2022-11-23T17:52:00.950Z,10.48
2022-11-23T17:54:31.448Z,9.52
2022-11-23T17:57:01.501Z,8.23
2022-11-23T17:59:28.762Z,8.88
2022-11-23T18:01:56.424Z,7.13
2022-11-23T18:04:23.789Z,6.90
2022-11-23T18:06:50.839Z,7.38
2022-11-23T18:09:18.299Z,8.63
2022-11-23T18:11:46.445Z,9.13
2022-11-23T18:14:22.835Z,7.65
2022-11-23T18:16:55.752Z,6.55
2022-11-23T18:19:42.994Z,6.63
2022-11-23T18:22:10.687Z,5.03
2022-11-23T18:24:38.165Z,4.80
2022-11-23T18:27:06.016Z,6.15
2022-11-23T18:32:18.991Z,5.70
2022-11-23T18:34:45.978Z,6.43
2022-11-23T18:37:13.148Z,7.95
2022-11-23T18:39:46.393Z,6.78
2022-11-23T18:42:14.320Z,6.93
2022-11-23T18:44:45.985Z,6.97
2022-11-23T18:47:13.019Z,6.05
2022-11-23T18:49:40.173Z,5.05
2022-11-23T18:52:09.225Z,5.68
2022-11-23T18:54:36.666Z,7.85
2022-11-23T18:57:03.569Z,8.00
2022-11-23T19:02:18.318Z,6.53
2022-11-23T19:04:46.907Z,6.18
2022-11-23T19:07:13.701Z,5.18
2022-11-23T19:09:40.632Z,5.38
2022-11-23T19:12:07.881Z,5.85
2022-11-23T19:14:34.649Z,6.50
2022-11-23T19:17:02.014Z,7.50
2022-11-23T19:19:28.896Z,6.55
2022-11-23T19:21:55.729Z,7.55
2022-11-23T19:24:22.748Z,8.30
2022-11-23T19:26:50.978Z,9.00
2022-11-23T19:29:23.655Z,9.38
2022-11-23T19:31:55.489Z,7.00
2022-11-23T19:34:22.470Z,6.20
2022-11-23T19:36:49.475Z,6.72
2022-11-23T19:39:16.590Z,10.30
2022-11-23T19:41:43.654Z,12.05
2022-11-23T19:44:10.915Z,6.28
2022-11-23T19:46:38.099Z,8.02
2022-11-23T19:49:05.055Z,11.02
2022-11-23T19:51:32.145Z,10.32
2022-11-23T19:54:01.120Z,6.85
2022-11-23T19:56:29.872Z,7.28
2022-11-23T19:58:59.261Z,15.77
2022-11-23T20:01:28.710Z,14.23
2022-11-23T20:04:09.149Z,12.75
2022-11-23T20:06:38.521Z,8.68
2022-11-23T20:09:10.280Z,6.60
2022-11-23T20:11:39.678Z,5.60
2022-11-23T20:14:09.928Z,6.05
2022-11-23T20:16:36.956Z,5.03
2022-11-23T20:19:08.484Z,5.78
2022-11-23T20:21:38.406Z,7.87
2022-11-23T20:24:10.062Z,6.03
2022-11-23T20:26:38.314Z,5.60
2022-11-23T20:29:07.232Z,6.72
2022-11-23T20:31:37.242Z,5.75
2022-11-23T20:34:07.614Z,6.88
2022-11-23T20:36:37.593Z,5.85
2022-11-23T20:44:41.660Z,5.72
2022-11-23T20:47:09.982Z,6.60
2022-11-23T20:49:39.794Z,6.15
2022-11-23T20:52:08.781Z,5.30
2022-11-23T20:54:37.939Z,6.25
2022-11-23T20:57:05.834Z,9.07
2022-11-23T20:59:33.053Z,8.80
2022-11-23T21:02:14.077Z,7.00
2022-11-23T21:04:41.582Z,6.10
2022-11-23T21:07:10.304Z,6.40
2022-11-23T21:09:37.687Z,4.50
2022-11-23T21:12:23.645Z,4.40
2022-11-23T21:14:53.232Z,5.63
2022-11-23T21:17:21.251Z,5.15
2022-11-23T21:19:48.151Z,6.18
2022-11-23T21:22:19.247Z,6.13
2022-11-23T21:24:46.653Z,8.90
2022-11-23T21:27:13.709Z,7.05
2022-11-23T21:29:41.323Z,11.35
2022-11-23T21:32:09.717Z,10.63
2022-11-23T21:34:37.401Z,8.57
2022-11-23T21:37:04.551Z,8.02
2022-11-23T21:39:31.876Z,7.03
2022-11-23T21:41:59.226Z,6.32
2022-11-23T21:44:27.990Z,5.85
2022-11-23T21:46:55.553Z,8.55
2022-11-23T21:49:22.697Z,7.13
2022-11-23T21:51:49.652Z,8.07
2022-11-23T21:54:16.718Z,12.10
2022-11-23T21:56:45.292Z,10.00
2022-11-23T21:59:13.108Z,10.18
2022-11-23T22:01:40.477Z,9.27
2022-11-23T22:04:13.325Z,10.00
2022-11-23T22:09:09.744Z,12.02
2022-11-23T22:11:49.105Z,13.32
2022-11-23T22:14:19.769Z,14.18
2022-11-23T22:16:54.675Z,12.32
2022-11-23T22:19:39.063Z,8.52
2022-11-23T22:22:07.446Z,6.60
2022-11-23T22:24:34.887Z,5.70
2022-11-23T22:27:02.654Z,5.60
2022-11-23T22:29:29.517Z,5.22
2022-11-23T22:31:56.425Z,5.82
2022-11-23T22:34:23.519Z,5.30
2022-11-23T22:36:50.801Z,3.95
2022-11-23T22:39:17.808Z,3.28
2022-11-23T22:41:44.565Z,3.25
2022-11-23T22:44:11.356Z,2.67
2022-11-23T22:46:39.078Z,2.65
2022-11-23T22:49:06.112Z,3.38
2022-11-23T22:51:33.282Z,3.10
2022-11-23T22:54:00.834Z,3.92
2022-11-23T22:56:29.338Z,4.43
2022-11-23T22:58:56.746Z,4.00
2022-11-23T23:01:26.545Z,3.20
2022-11-23T23:03:55.626Z,3.60
2022-11-23T23:06:25.469Z,3.45
2022-11-23T23:08:55.671Z,5.18
2022-11-23T23:11:23.000Z,4.50
2022-11-23T23:13:49.778Z,3.83
2022-11-23T23:16:16.721Z,3.65
2022-11-23T23:18:44.213Z,3.33
2022-11-23T23:21:16.805Z,2.55
2022-11-23T23:23:46.604Z,3.22
2022-11-23T23:26:15.954Z,3.15
2022-11-23T23:28:43.013Z,2.90
2022-11-23T23:31:12.189Z,3.22
2022-11-23T23:33:38.964Z,3.10
2022-11-23T23:36:11.710Z,3.65
2022-11-23T23:38:39.042Z,2.75
2022-11-23T23:41:07.197Z,3.20
2022-11-23T23:43:34.189Z,3.10
2022-11-23T23:46:03.702Z,2.60
2022-11-23T23:48:32.271Z,2.92
2022-11-23T23:50:59.596Z,2.95
2022-11-23T23:53:26.342Z,3.42
2022-11-23T23:56:01.174Z,2.75
2022-11-23T23:58:28.732Z,3.45
